Time;durP1;ratioP1;P1;durP2;ratioP2;P2;SDS_P1;SDS_P2;PMS_P1;PMS_P2;Temp;Humidity;BMP_temperature;BMP_pressure;BME280_temperature;BME280_humidity;BME280_pressure;Samples;Min_cycle;Max_cycle;Signal;HPM_P1;HPM_P2
2023/01/12 00:02:07;;;;;;;;;;;7.90;99.90;;;;;;5068835;28;20023;-71
2023/01/12 00:04:33;;;;;;;;;;;7.80;99.90;;;;;;5068104;28;19912;-72
2023/01/12 00:06:59;;;;;;;;;;;7.90;99.90;;;;;;5068717;28;19966;-72
2023/01/12 00:09:24;;;;;;;;;;;7.90;99.90;;;;;;5068550;28;19913;-71
2023/01/12 00:11:50;;;;;;;;;;;7.90;99.90;;;;;;5067752;28;19966;-71
2023/01/12 00:14:15;;;;;;;;;;;7.80;99.90;;;;;;5068758;28;19924;-72
2023/01/12 00:16:41;;;;;;;;;;;7.90;99.90;;;;;;5064908;28;19912;-72
2023/01/12 00:19:14;;;;;;;;;;;7.90;99.90;;;;;;5069198;28;19912;-72
2023/01/12 00:24:42;;;;;;;;;;;7.80;99.90;;;;;;5089831;28;19919;-71
2023/01/12 00:27:13;;;;;;;;;;;7.80;99.90;;;;;;5082448;28;20303;-71
2023/01/12 00:29:38;;;;;;;;;;;7.80;99.90;;;;;;5067392;28;19927;-71
2023/01/12 00:32:04;;;;;;;;;;;7.80;99.90;;;;;;5068696;28;19986;-72
2023/01/12 00:34:30;;;;;;;;;;;7.80;99.90;;;;;;5068762;28;19920;-72
2023/01/12 00:36:56;;;;;;;;;;;7.80;99.90;;;;;;5068420;28;20548;-72
2023/01/12 00:39:21;;;;;;;;;;;7.80;99.90;;;;;;5068626;28;19916;-71
2023/01/12 00:47:29;;;;;;;;;;;7.90;99.90;;;;;;5067437;28;19985;-72
2023/01/12 00:49:55;;;;;;;;;;;7.90;99.90;;;;;;5067991;28;19917;-72
2023/01/12 00:52:20;;;;;;;;;;;7.90;99.90;;;;;;5072892;28;19961;-72
2023/01/12 00:54:46;;;;;;;;;;;7.90;99.90;;;;;;5068863;28;20509;-72
2023/01/12 00:57:12;;;;;;;;;;;7.90;99.90;;;;;;5074696;28;19920;-72
2023/01/12 00:59:37;;;;;;;;;;;7.90;99.90;;;;;;5088578;28;20315;-72
2023/01/12 01:02:04;;;;;;;;;;;7.90;99.90;;;;;;5088322;28;19916;-72
2023/01/12 01:04:29;;;;;;;;;;;7.90;99.90;;;;;;5088938;28;19969;-72
2023/01/12 01:06:55;;;;;;;;;;;7.90;99.90;;;;;;5087760;28;19916;-72
2023/01/12 01:09:20;;;;;;;;;;;7.90;99.90;;;;;;5086628;28;19931;-72
2023/01/12 01:11:46;;;;;;;;;;;7.90;99.90;;;;;;5088102;28;19999;-72
2023/01/12 01:14:11;;;;;;;;;;;7.90;99.90;;;;;;5068014;28;19920;-71
2023/01/12 01:16:37;;;;;;;;;;;7.90;99.90;;;;;;5066350;28;19909;-72
2023/01/12 01:19:04;;;;;;;;;;;7.90;99.90;;;;;;5067876;28;19954;-71
2023/01/12 01:21:30;;;;;;;;;;;7.90;99.90;;;;;;5075014;28;19955;-72
2023/01/12 01:23:56;;;;;;;;;;;7.90;99.90;;;;;;5087655;28;19959;-72
2023/01/12 01:26:22;;;;;;;;;;;7.90;99.90;;;;;;5087971;28;19912;-72
2023/01/12 01:28:48;;;;;;;;;;;7.90;99.90;;;;;;5062163;28;19958;-72
2023/01/12 01:31:18;;;;;;;;;;;7.90;99.90;;;;;;5062110;28;19920;-72
2023/01/12 01:33:43;;;;;;;;;;;7.90;99.90;;;;;;5066470;28;19913;-72
2023/01/12 01:36:09;;;;;;;;;;;7.90;99.90;;;;;;5067525;28;19912;-72
2023/01/12 01:38:36;;;;;;;;;;;7.90;99.90;;;;;;5067050;28;19913;-72
2023/01/12 01:41:02;;;;;;;;;;;7.90;99.90;;;;;;5066849;28;19908;-72
2023/01/12 01:43:28;;;;;;;;;;;7.90;99.90;;;;;;5067593;28;19924;-73
2023/01/12 01:46:06;;;;;;;;;;;7.90;99.90;;;;;;5067773;28;20011;-72
2023/01/12 01:48:33;;;;;;;;;;;7.90;99.90;;;;;;5067685;28;19913;-72
2023/01/12 01:51:01;;;;;;;;;;;7.90;99.90;;;;;;5069676;28;19912;-73
2023/01/12 01:53:28;;;;;;;;;;;7.90;99.90;;;;;;5087547;28;19912;-72
2023/01/12 01:56:03;;;;;;;;;;;7.90;99.90;;;;;;5087198;28;19908;-72
2023/01/12 01:58:32;;;;;;;;;;;7.90;99.90;;;;;;5069951;28;19982;-72
2023/01/12 02:00:58;;;;;;;;;;;7.90;99.90;;;;;;5066740;28;19975;-72
2023/01/12 02:03:24;;;;;;;;;;;7.90;99.90;;;;;;5067220;28;19916;-72
2023/01/12 02:05:50;;;;;;;;;;;7.90;99.90;;;;;;5066966;28;19916;-71
2023/01/12 02:08:22;;;;;;;;;;;7.90;99.90;;;;;;5067300;28;19919;-72
2023/01/12 02:10:50;;;;;;;;;;;7.90;99.90;;;;;;5066634;28;19909;-71
2023/01/12 02:16:19;;;;;;;;;;;7.90;99.90;;;;;;5066650;28;19919;-72
2023/01/12 02:19:03;;;;;;;;;;;7.90;99.90;;;;;;5067031;28;20335;-72
2023/01/12 02:21:44;;;;;;;;;;;7.90;99.90;;;;;;5073580;28;20014;-72
2023/01/12 02:24:27;;;;;;;;;;;7.90;99.90;;;;;;5087498;28;19929;-72
2023/01/12 02:26:58;;;;;;;;;;;7.90;99.90;;;;;;5082240;28;19919;-72
2023/01/12 02:29:24;;;;;;;;;;;7.90;99.90;;;;;;5066033;28;19919;-73
2023/01/12 02:31:58;;;;;;;;;;;8.00;99.90;;;;;;5066613;28;19913;-72
2023/01/12 02:34:32;;;;;;;;;;;7.90;99.90;;;;;;5066721;28;19935;-72
2023/01/12 02:37:17;;;;;;;;;;;7.90;99.90;;;;;;5066668;28;19912;-72
2023/01/12 02:39:42;;;;;;;;;;;8.00;99.90;;;;;;5066366;28;19916;-72
2023/01/12 02:45:20;;;;;;;;;;;8.00;99.90;;;;;;5066487;28;19970;-72
2023/01/12 02:47:51;;;;;;;;;;;8.00;99.90;;;;;;5059780;28;19916;-73
2023/01/12 02:50:20;;;;;;;;;;;7.90;99.90;;;;;;5066257;28;19916;-73
2023/01/12 02:52:48;;;;;;;;;;;7.90;99.90;;;;;;5084594;28;20391;-72
2023/01/12 02:55:15;;;;;;;;;;;7.90;99.90;;;;;;5086732;28;20373;-73
2023/01/12 02:57:41;;;;;;;;;;;8.00;99.90;;;;;;5075772;28;20451;-72
2023/01/12 03:00:07;;;;;;;;;;;8.00;99.90;;;;;;5066126;28;20362;-73
2023/01/12 03:02:33;;;;;;;;;;;7.90;99.90;;;;;;5065393;28;20714;-73
2023/01/12 03:04:58;;;;;;;;;;;8.00;99.90;;;;;;5066825;28;19919;-73
2023/01/12 03:07:33;;;;;;;;;;;8.00;99.90;;;;;;5066518;28;20071;-72
2023/01/12 03:10:07;;;;;;;;;;;8.00;99.90;;;;;;5066509;28;19966;-73
2023/01/12 03:12:35;;;;;;;;;;;8.00;99.90;;;;;;5066444;28;19909;-72
2023/01/12 03:15:04;;;;;;;;;;;7.90;99.90;;;;;;5066294;28;19920;-73
2023/01/12 03:17:36;;;;;;;;;;;7.90;99.90;;;;;;5064630;28;20493;-73
2023/01/12 03:20:05;;;;;;;;;;;8.00;99.90;;;;;;5065088;28;19971;-73
2023/01/12 03:22:33;;;;;;;;;;;7.90;99.90;;;;;;5081198;28;20274;-72
2023/01/12 03:25:01;;;;;;;;;;;7.90;99.90;;;;;;5085863;28;19915;-72
2023/01/12 03:27:35;;;;;;;;;;;7.90;99.90;;;;;;5075825;28;19923;-73
2023/01/12 03:30:10;;;;;;;;;;;7.90;99.90;;;;;;5065686;28;20007;-72
2023/01/12 03:32:35;;;;;;;;;;;7.90;99.90;;;;;;5066207;28;19920;-72
2023/01/12 03:35:01;;;;;;;;;;;8.00;99.90;;;;;;5064820;28;19913;-72
2023/01/12 03:37:30;;;;;;;;;;;7.90;99.90;;;;;;5067025;28;19947;-73
2023/01/12 03:40:01;;;;;;;;;;;7.90;99.90;;;;;;5070011;28;19916;-73
2023/01/12 03:42:33;;;;;;;;;;;7.90;99.90;;;;;;5068027;28;19966;-72
2023/01/12 03:45:17;;;;;;;;;;;7.90;99.90;;;;;;5068078;28;19915;-72
2023/01/12 03:47:43;;;;;;;;;;;7.90;99.90;;;;;;5050068;28;19983;-72
2023/01/12 03:50:12;;;;;;;;;;;8.00;99.90;;;;;;5049888;28;20270;-72
2023/01/12 03:52:39;;;;;;;;;;;7.90;99.90;;;;;;5082459;28;19919;-72
2023/01/12 03:55:06;;;;;;;;;;;7.90;99.90;;;;;;5090383;28;19908;-73
2023/01/12 03:57:32;;;;;;;;;;;8.00;99.90;;;;;;5080379;28;19912;-72
2023/01/12 03:59:59;;;;;;;;;;;7.90;99.90;;;;;;5069506;28;20327;-72
2023/01/12 04:02:25;;;;;;;;;;;8.00;99.90;;;;;;5069559;28;19947;-73
2023/01/12 04:04:50;;;;;;;;;;;7.90;99.90;;;;;;5069679;28;19955;-72
2023/01/12 04:07:16;;;;;;;;;;;7.90;99.90;;;;;;5101778;28;19916;-72
2023/01/12 04:09:41;;;;;;;;;;;8.00;99.90;;;;;;5068498;28;19913;-72
2023/01/12 04:12:11;;;;;;;;;;;8.00;99.90;;;;;;5068887;28;19912;-72
2023/01/12 04:14:37;;;;;;;;;;;8.00;99.90;;;;;;5067205;28;19947;-71
2023/01/12 04:17:03;;;;;;;;;;;8.00;99.90;;;;;;5068306;28;19908;-72
2023/01/12 04:19:28;;;;;;;;;;;8.00;99.90;;;;;;5069079;28;19909;-72
2023/01/12 04:24:38;;;;;;;;;;;8.00;99.90;;;;;;5068831;28;19954;-72
2023/01/12 04:27:03;;;;;;;;;;;8.00;99.90;;;;;;5073974;28;19912;-72
2023/01/12 04:29:29;;;;;;;;;;;8.00;99.90;;;;;;5089308;28;20596;-73
2023/01/12 04:31:54;;;;;;;;;;;8.00;99.90;;;;;;5089208;28;20526;-73
2023/01/12 04:34:20;;;;;;;;;;;8.00;99.90;;;;;;5089675;28;19962;-72
2023/01/12 04:36:45;;;;;;;;;;;8.00;99.90;;;;;;5089061;28;20295;-72
2023/01/12 04:39:11;;;;;;;;;;;8.00;99.90;;;;;;5088854;28;20103;-72
2023/01/12 04:41:36;;;;;;;;;;;8.00;99.90;;;;;;5088243;28;20467;-72
2023/01/12 04:44:02;;;;;;;;;;;8.00;99.90;;;;;;5088993;28;20506;-72
2023/01/12 04:46:27;;;;;;;;;;;8.00;99.90;;;;;;5077191;28;19912;-72
2023/01/12 04:48:53;;;;;;;;;;;8.00;99.90;;;;;;5067425;28;19954;-72
2023/01/12 04:51:18;;;;;;;;;;;8.00;99.90;;;;;;5074050;28;19908;-72
2023/01/12 04:53:44;;;;;;;;;;;8.00;99.90;;;;;;5088817;28;19957;-73
2023/01/12 04:56:10;;;;;;;;;;;8.00;99.90;;;;;;5088858;28;19912;-72
2023/01/12 04:58:35;;;;;;;;;;;8.00;99.90;;;;;;5069792;28;19917;-72
2023/01/12 05:01:11;;;;;;;;;;;8.00;99.90;;;;;;5068399;28;19935;-71
2023/01/12 05:03:36;;;;;;;;;;;8.00;99.90;;;;;;5068154;28;19942;-72
2023/01/12 05:06:02;;;;;;;;;;;8.00;99.90;;;;;;5068494;28;20587;-72
2023/01/12 05:11:12;;;;;;;;;;;8.00;99.90;;;;;;5068094;28;19997;-72
2023/01/12 05:13:37;;;;;;;;;;;8.00;99.90;;;;;;5073382;28;19950;-72
2023/01/12 05:16:09;;;;;;;;;;;8.00;99.90;;;;;;5075934;28;20289;-72
2023/01/12 05:18:35;;;;;;;;;;;8.00;99.90;;;;;;5067633;28;19912;-71
2023/01/12 05:21:00;;;;;;;;;;;8.00;99.90;;;;;;5071227;28;19951;-71
2023/01/12 05:23:26;;;;;;;;;;;8.00;99.90;;;;;;5088333;28;20421;-72
2023/01/12 05:25:51;;;;;;;;;;;8.00;99.90;;;;;;5088296;28;19970;-72
2023/01/12 05:28:17;;;;;;;;;;;8.00;99.90;;;;;;5072132;28;19916;-72
2023/01/12 05:30:42;;;;;;;;;;;8.00;99.90;;;;;;5067575;28;20341;-73
2023/01/12 05:33:14;;;;;;;;;;;8.00;99.90;;;;;;5065689;28;19908;-72
2023/01/12 05:35:40;;;;;;;;;;;8.00;99.90;;;;;;5067934;28;19999;-72
2023/01/12 05:38:05;;;;;;;;;;;8.00;99.90;;;;;;5067567;28;20046;-71
2023/01/12 05:40:31;;;;;;;;;;;8.00;99.90;;;;;;5067293;28;20005;-72
2023/01/12 05:45:40;;;;;;;;;;;8.00;99.90;;;;;;5053120;28;19919;-73
2023/01/12 05:48:08;;;;;;;;;;;8.00;99.90;;;;;;5067120;28;19913;-71
2023/01/12 05:50:34;;;;;;;;;;;8.00;99.90;;;;;;5066891;28;19908;-71
2023/01/12 05:52:59;;;;;;;;;;;8.00;99.90;;;;;;5087345;28;19908;-72
2023/01/12 05:55:25;;;;;;;;;;;8.00;99.90;;;;;;5087799;28;19923;-72
2023/01/12 05:57:50;;;;;;;;;;;8.00;99.90;;;;;;5075810;28;19995;-71
2023/01/12 06:00:16;;;;;;;;;;;8.00;99.90;;;;;;5066982;28;19917;-71
2023/01/12 06:02:41;;;;;;;;;;;8.00;99.90;;;;;;5067205;28;19951;-72
2023/01/12 06:05:08;;;;;;;;;;;8.00;99.90;;;;;;5066684;28;19913;-72
2023/01/12 06:07:34;;;;;;;;;;;8.00;99.90;;;;;;5067259;28;19952;-72
2023/01/12 06:09:59;;;;;;;;;;;8.00;99.90;;;;;;5067326;28;20404;-73
2023/01/12 06:15:09;;;;;;;;;;;8.00;99.90;;;;;;5080572;28;20047;-72
2023/01/12 06:17:35;;;;;;;;;;;8.00;99.90;;;;;;5066307;28;20011;-72
2023/01/12 06:20:00;;;;;;;;;;;8.00;99.90;;;;;;5066961;28;19912;-73
2023/01/12 06:22:26;;;;;;;;;;;8.00;99.90;;;;;;5081179;28;19924;-72
2023/01/12 06:24:52;;;;;;;;;;;8.00;99.90;;;;;;5087383;28;19955;-72
2023/01/12 06:27:18;;;;;;;;;;;8.00;99.90;;;;;;5079409;28;20623;-73
2023/01/12 06:29:43;;;;;;;;;;;8.00;99.90;;;;;;5065440;28;19966;-72
2023/01/12 06:32:09;;;;;;;;;;;8.00;99.90;;;;;;5065295;28;19919;-72
2023/01/12 06:34:34;;;;;;;;;;;8.00;99.90;;;;;;5066672;28;19912;-71
2023/01/12 06:37:01;;;;;;;;;;;8.00;99.90;;;;;;5066673;28;20452;-72
2023/01/12 06:39:27;;;;;;;;;;;8.00;99.90;;;;;;5065851;28;19917;-72
2023/01/12 06:44:37;;;;;;;;;;;8.00;99.90;;;;;;5080522;28;19965;-72
2023/01/12 06:47:03;;;;;;;;;;;8.00;99.90;;;;;;5069716;28;19920;-72
2023/01/12 06:49:28;;;;;;;;;;;8.00;99.90;;;;;;5066713;28;19987;-72
2023/01/12 06:51:54;;;;;;;;;;;7.90;99.90;;;;;;5076841;28;19912;-73
2023/01/12 06:54:19;;;;;;;;;;;8.00;99.90;;;;;;5086946;28;20486;-72
2023/01/12 06:56:45;;;;;;;;;;;8.00;99.90;;;;;;5083267;28;20416;-72
2023/01/12 06:59:11;;;;;;;;;;;8.00;99.90;;;;;;5066864;28;19912;-72
2023/01/12 07:01:37;;;;;;;;;;;8.00;99.90;;;;;;5066511;28;19912;-72
2023/01/12 07:04:03;;;;;;;;;;;7.90;99.90;;;;;;5066785;28;19997;-72
2023/01/12 07:06:28;;;;;;;;;;;8.00;99.90;;;;;;5066501;28;19916;-72
2023/01/12 07:08:54;;;;;;;;;;;8.00;99.90;;;;;;5066698;28;19913;-72
2023/01/12 07:11:19;;;;;;;;;;;8.00;99.90;;;;;;5065847;28;20003;-72
2023/01/12 07:13:45;;;;;;;;;;;7.90;99.90;;;;;;5075762;28;19928;-72
2023/01/12 07:16:10;;;;;;;;;;;8.00;99.90;;;;;;5074212;28;20022;-72
2023/01/12 07:18:36;;;;;;;;;;;7.90;99.90;;;;;;5070234;28;19920;-72
2023/01/12 07:21:05;;;;;;;;;;;8.00;99.90;;;;;;5073457;28;20345;-73
2023/01/12 07:23:31;;;;;;;;;;;7.90;99.90;;;;;;5090981;28;20011;-73
2023/01/12 07:25:56;;;;;;;;;;;7.90;99.90;;;;;;5090526;28;20702;-72
2023/01/12 07:28:22;;;;;;;;;;;8.00;99.90;;;;;;5073037;28;19920;-73
2023/01/12 07:30:48;;;;;;;;;;;7.90;99.90;;;;;;5069725;28;20008;-72
2023/01/12 07:33:14;;;;;;;;;;;7.90;99.90;;;;;;5070252;28;19920;-73
2023/01/12 07:35:40;;;;;;;;;;;8.00;99.90;;;;;;5070138;28;19919;-73
2023/01/12 07:38:05;;;;;;;;;;;8.00;99.90;;;;;;5069961;28;19981;-73
2023/01/12 07:40:31;;;;;;;;;;;8.00;99.90;;;;;;5069838;28;19922;-71
2023/01/12 07:43:07;;;;;;;;;;;8.00;99.90;;;;;;5069715;28;20453;-73
2023/01/12 07:45:33;;;;;;;;;;;8.00;99.90;;;;;;5070169;28;19919;-73
2023/01/12 07:47:58;;;;;;;;;;;8.00;99.90;;;;;;5069427;28;19913;-73
2023/01/12 07:50:24;;;;;;;;;;;8.00;99.90;;;;;;5069160;28;19912;-72
2023/01/12 07:52:50;;;;;;;;;;;8.00;99.90;;;;;;5088265;28;20018;-72
2023/01/12 07:55:18;;;;;;;;;;;8.00;99.90;;;;;;5090120;28;20014;-73
2023/01/12 07:57:52;;;;;;;;;;;8.00;99.90;;;;;;5078953;28;19916;-73
2023/01/12 08:00:22;;;;;;;;;;;8.00;99.90;;;;;;5069731;28;19908;-73
2023/01/12 08:02:54;;;;;;;;;;;8.00;99.90;;;;;;5069260;28;19927;-73
2023/01/12 08:05:20;;;;;;;;;;;8.00;99.90;;;;;;5069537;28;20447;-73
2023/01/12 08:07:45;;;;;;;;;;;8.00;99.90;;;;;;5069617;28;19912;-73
2023/01/12 08:10:11;;;;;;;;;;;8.00;99.90;;;;;;5069538;28;19913;-73
2023/01/12 08:12:37;;;;;;;;;;;8.00;99.90;;;;;;5069612;28;19920;-72
2023/01/12 08:15:03;;;;;;;;;;;8.00;99.90;;;;;;5079854;28;20262;-72
2023/01/12 08:17:32;;;;;;;;;;;8.00;99.90;;;;;;5068737;28;20054;-72
2023/01/12 08:20:00;;;;;;;;;;;8.00;99.90;;;;;;5068528;28;19913;-73
2023/01/12 08:22:32;;;;;;;;;;;8.00;99.90;;;;;;5083895;28;19916;-73
2023/01/12 08:25:01;;;;;;;;;;;8.10;99.90;;;;;;5078247;28;19916;-72
2023/01/12 08:27:27;;;;;;;;;;;8.00;99.90;;;;;;5076803;28;19959;-73
2023/01/12 08:29:56;;;;;;;;;;;8.00;99.90;;;;;;5089100;28;19912;-73
2023/01/12 08:32:22;;;;;;;;;;;8.10;99.90;;;;;;5089148;28;19916;-73
2023/01/12 08:34:49;;;;;;;;;;;8.10;99.90;;;;;;5089036;28;20487;-72
2023/01/12 08:37:16;;;;;;;;;;;8.10;99.90;;;;;;5088957;28;19908;-72
2023/01/12 08:39:42;;;;;;;;;;;8.10;99.90;;;;;;5088906;28;19923;-72
2023/01/12 08:42:08;;;;;;;;;;;8.10;99.90;;;;;;5089039;28;19912;-72
2023/01/12 08:44:34;;;;;;;;;;;8.10;99.90;;;;;;5089223;28;19916;-73
2023/01/12 08:47:00;;;;;;;;;;;8.10;99.90;;;;;;5071418;28;19912;-73
2023/01/12 08:49:26;;;;;;;;;;;8.10;99.90;;;;;;5068871;28;19917;-73
2023/01/12 08:51:52;;;;;;;;;;;8.10;99.90;;;;;;5078688;28;20246;-73
2023/01/12 08:54:18;;;;;;;;;;;8.10;99.90;;;;;;5089034;28;19919;-72
2023/01/12 08:56:44;;;;;;;;;;;8.10;99.90;;;;;;5070816;28;19918;-73
2023/01/12 08:59:11;;;;;;;;;;;8.20;99.90;;;;;;5068568;28;19912;-72
2023/01/12 09:01:36;;;;;;;;;;;8.20;99.90;;;;;;5068064;28;20015;-73
2023/01/12 09:04:02;;;;;;;;;;;8.20;99.90;;;;;;5067572;28;20050;-72
2023/01/12 09:06:29;;;;;;;;;;;8.20;99.90;;;;;;5068380;28;20389;-73
2023/01/12 09:08:56;;;;;;;;;;;8.20;99.90;;;;;;5068285;28;20022;-72
2023/01/12 09:11:22;;;;;;;;;;;8.20;99.90;;;;;;5067451;28;20273;-72
2023/01/12 09:13:47;;;;;;;;;;;8.20;99.90;;;;;;5069764;28;19920;-71
2023/01/12 09:16:14;;;;;;;;;;;8.30;99.90;;;;;;5063766;28;19919;-72
2023/01/12 09:18:40;;;;;;;;;;;8.30;99.90;;;;;;5067511;28;19966;-72
2023/01/12 09:21:07;;;;;;;;;;;8.30;99.90;;;;;;5068359;28;19987;-72
2023/01/12 09:23:33;;;;;;;;;;;8.30;99.90;;;;;;5067644;28;19966;-71
2023/01/12 09:26:03;;;;;;;;;;;8.30;99.90;;;;;;5066856;28;19913;-71
2023/01/12 09:28:29;;;;;;;;;;;8.30;99.90;;;;;;5075704;28;19920;-71
2023/01/12 09:30:54;;;;;;;;;;;8.30;99.90;;;;;;5067292;28;20528;-71
2023/01/12 09:33:20;;;;;;;;;;;8.30;99.90;;;;;;5067537;28;19919;-71
2023/01/12 09:35:46;;;;;;;;;;;8.30;99.90;;;;;;5067402;28;19942;-71
2023/01/12 09:38:11;;;;;;;;;;;8.40;99.90;;;;;;5067894;28;19999;-71
2023/01/12 09:40:41;;;;;;;;;;;8.40;99.90;;;;;;5067007;28;20519;-71
2023/01/12 09:48:37;;;;;;;;;;;8.40;99.90;;;;;;5067087;28;19985;-72
2023/01/12 09:51:08;;;;;;;;;;;8.40;99.90;;;;;;5071202;28;20396;-72
2023/01/12 09:53:35;;;;;;;;;;;8.40;99.90;;;;;;5087562;28;19908;-71
2023/01/12 09:56:07;;;;;;;;;;;8.40;99.90;;;;;;5087346;28;19919;-72
2023/01/12 09:58:51;;;;;;;;;;;8.40;99.90;;;;;;5067887;28;19913;-71
2023/01/12 10:01:18;;;;;;;;;;;8.50;99.90;;;;;;5065706;28;19917;-72
2023/01/12 10:03:44;;;;;;;;;;;8.50;99.90;;;;;;5067177;28;19916;-72
2023/01/12 10:06:14;;;;;;;;;;;8.50;99.90;;;;;;5067100;28;19936;-72
2023/01/12 10:08:39;;;;;;;;;;;8.50;99.90;;;;;;5067373;28;19908;-72
2023/01/12 10:11:14;;;;;;;;;;;8.50;99.90;;;;;;5064167;28;19916;-72
2023/01/12 10:13:53;;;;;;;;;;;8.50;99.90;;;;;;5067401;28;19927;-72
2023/01/12 10:16:39;;;;;;;;;;;8.50;99.90;;;;;;5063542;28;19909;-71
2023/01/12 10:19:25;;;;;;;;;;;8.60;99.90;;;;;;5062982;28;20448;-70
2023/01/12 10:21:52;;;;;;;;;;;8.60;99.90;;;;;;5056570;28;19919;-71
2023/01/12 10:24:20;;;;;;;;;;;8.60;99.90;;;;;;5066148;28;20537;-72
2023/01/12 10:26:49;;;;;;;;;;;8.60;99.90;;;;;;5064405;28;19919;-72
2023/01/12 10:29:15;;;;;;;;;;;8.60;99.90;;;;;;5064558;28;19912;-72
2023/01/12 10:31:40;;;;;;;;;;;8.60;99.90;;;;;;5065511;28;19919;-72
2023/01/12 10:34:10;;;;;;;;;;;8.60;99.90;;;;;;5065581;28;20031;-71
2023/01/12 10:36:43;;;;;;;;;;;8.70;99.90;;;;;;5065507;28;20562;-72
2023/01/12 10:39:27;;;;;;;;;;;8.70;99.90;;;;;;5059692;28;19964;-72
2023/01/12 10:43:17;;;;;;;;;;;8.70;99.90;;;;;;5063682;28;20280;-72
2023/01/12 10:45:17;;;;;;;;;;;8.70;99.90;;;;;;5063547;28;19916;-72
2023/01/12 10:47:43;;;;;;;;;;;8.70;99.90;;;;;;5062684;28;19947;-72
2023/01/12 10:50:17;;;;;;;;;;;8.70;99.90;;;;;;5064123;28;19995;-73
2023/01/12 10:52:43;;;;;;;;;;;8.70;99.90;;;;;;5066550;28;19912;-72
2023/01/12 10:55:16;;;;;;;;;;;8.70;99.90;;;;;;5065116;28;20242;-73
2023/01/12 10:57:43;;;;;;;;;;;8.80;99.90;;;;;;5065286;28;19912;-72
2023/01/12 11:00:17;;;;;;;;;;;8.80;99.90;;;;;;5065167;28;19954;-72
2023/01/12 11:02:43;;;;;;;;;;;8.80;99.90;;;;;;5062614;28;20523;-72
2023/01/12 11:05:28;;;;;;;;;;;8.80;99.90;;;;;;5065128;28;19984;-72
2023/01/12 11:07:54;;;;;;;;;;;8.80;99.90;;;;;;5065039;28;19917;-72
2023/01/12 11:10:27;;;;;;;;;;;8.80;99.90;;;;;;5064584;28;19919;-71
2023/01/12 11:13:03;;;;;;;;;;;8.80;99.90;;;;;;5065010;28;20003;-72
2023/01/12 11:15:29;;;;;;;;;;;8.80;99.90;;;;;;5061823;28;20515;-71
2023/01/12 11:17:55;;;;;;;;;;;8.90;99.90;;;;;;5064476;28;20488;-72
2023/01/12 11:20:33;;;;;;;;;;;8.90;99.90;;;;;;5063325;28;19919;-72
2023/01/12 11:23:04;;;;;;;;;;;8.90;99.90;;;;;;5067507;28;20404;-73
2023/01/12 11:25:35;;;;;;;;;;;8.90;99.90;;;;;;5065449;28;19948;-72
2023/01/12 11:28:08;;;;;;;;;;;8.90;99.90;;;;;;5066909;28;19924;-72
2023/01/12 11:30:40;;;;;;;;;;;8.90;99.90;;;;;;5064999;28;19959;-72
2023/01/12 11:33:11;;;;;;;;;;;8.90;99.90;;;;;;5065020;28;19913;-73
2023/01/12 11:35:40;;;;;;;;;;;8.90;99.90;;;;;;5062717;28;19917;-73
2023/01/12 11:38:11;;;;;;;;;;;8.90;99.90;;;;;;5062050;28;19967;-72
2023/01/12 11:40:37;;;;;;;;;;;8.90;99.90;;;;;;5060059;28;22055;-73
2023/01/12 11:46:08;;;;;;;;;;;8.90;99.90;;;;;;5056830;28;20296;-73
2023/01/12 11:48:42;;;;;;;;;;;8.90;99.90;;;;;;5063040;28;20583;-72
2023/01/12 11:51:09;;;;;;;;;;;8.90;99.90;;;;;;5064804;28;19916;-73
2023/01/12 11:53:35;;;;;;;;;;;9.00;99.90;;;;;;5063749;28;19912;-73
2023/01/12 11:56:06;;;;;;;;;;;9.00;99.90;;;;;;5064638;28;20456;-72
2023/01/12 11:58:37;;;;;;;;;;;8.90;99.90;;;;;;5068986;28;19923;-72
2023/01/12 12:01:14;;;;;;;;;;;9.00;99.90;;;;;;5067901;28;20412;-72
2023/01/12 12:03:43;;;;;;;;;;;9.00;99.90;;;;;;5067977;28;19916;-72
2023/01/12 12:06:29;;;;;;;;;;;8.90;99.90;;;;;;5066169;28;19908;-73
2023/01/12 12:08:54;;;;;;;;;;;9.00;99.90;;;;;;5064185;28;20372;-73
2023/01/12 12:11:43;;;;;;;;;;;9.00;99.90;;;;;;5066996;28;19913;-72
2023/01/12 12:14:28;;;;;;;;;;;9.00;99.90;;;;;;5064063;28;19999;-72
2023/01/12 12:17:08;;;;;;;;;;;9.00;99.90;;;;;;5068377;28;19912;-72
2023/01/12 12:19:52;;;;;;;;;;;9.00;99.90;;;;;;5065522;28;19981;-73
2023/01/12 12:22:37;;;;;;;;;;;9.00;99.90;;;;;;5067346;28;19975;-73
2023/01/12 12:25:09;;;;;;;;;;;9.00;99.90;;;;;;5067824;28;19920;-73
2023/01/12 12:27:52;;;;;;;;;;;9.00;99.90;;;;;;5076082;28;19962;-73
2023/01/12 12:30:40;;;;;;;;;;;9.00;99.90;;;;;;5087913;28;20265;-73
2023/01/12 12:33:12;;;;;;;;;;;9.10;99.90;;;;;;5088482;28;19923;-73
2023/01/12 12:35:58;;;;;;;;;;;9.00;99.90;;;;;;5077855;28;20740;-73
2023/01/12 12:38:35;;;;;;;;;;;9.10;99.90;;;;;;5068140;28;19912;-72
2023/01/12 12:47:01;;;;;;;;;;;9.10;99.90;;;;;;5063558;28;20425;-72
2023/01/12 12:49:28;;;;;;;;;;;9.10;99.90;;;;;;5068546;28;20682;-72
2023/01/12 12:51:55;;;;;;;;;;;9.10;99.90;;;;;;5079289;28;20491;-72
2023/01/12 12:54:22;;;;;;;;;;;9.10;99.90;;;;;;5088982;28;20536;-72
2023/01/12 12:56:48;;;;;;;;;;;9.10;99.90;;;;;;5085252;28;19947;-72
2023/01/12 12:59:31;;;;;;;;;;;9.10;99.90;;;;;;5068710;28;20004;-72
2023/01/12 13:01:58;;;;;;;;;;;9.10;99.90;;;;;;5065345;28;20058;-72
2023/01/12 13:04:53;;;;;;;;;;;9.10;99.90;;;;;;5068525;28;19938;-72
2023/01/12 13:07:20;;;;;;;;;;;9.10;99.90;;;;;;5058810;28;19912;-72
2023/01/12 13:09:47;;;;;;;;;;;9.10;99.90;;;;;;5067329;28;19916;-72
2023/01/12 13:12:18;;;;;;;;;;;9.10;99.90;;;;;;5067891;28;19912;-72
2023/01/12 13:15:03;;;;;;;;;;;9.20;99.90;;;;;;5067838;28;19917;-72
2023/01/12 13:17:30;;;;;;;;;;;9.20;99.90;;;;;;5086156;28;19961;-72
2023/01/12 13:19:55;;;;;;;;;;;9.10;99.90;;;;;;5087751;28;20284;-73
2023/01/12 13:22:39;;;;;;;;;;;9.10;99.90;;;;;;5087767;28;19919;-72
2023/01/12 13:25:14;;;;;;;;;;;9.20;99.90;;;;;;5088144;28;19955;-72
2023/01/12 13:28:01;;;;;;;;;;;9.20;99.90;;;;;;5076875;28;20023;-73
2023/01/12 13:30:28;;;;;;;;;;;9.20;99.90;;;;;;5066914;28;20563;-72
2023/01/12 13:32:53;;;;;;;;;;;9.20;99.90;;;;;;5068473;28;19965;-72
2023/01/12 13:35:22;;;;;;;;;;;9.20;99.90;;;;;;5067613;28;20600;-72
2023/01/12 13:37:53;;;;;;;;;;;9.20;99.90;;;;;;5066886;28;19919;-72
2023/01/12 13:40:20;;;;;;;;;;;9.20;99.90;;;;;;5065912;28;19943;-72
2023/01/12 13:45:31;;;;;;;;;;;9.20;99.90;;;;;;5070743;28;19919;-73
2023/01/12 13:47:57;;;;;;;;;;;9.20;99.90;;;;;;5087466;28;20361;-73
2023/01/12 13:50:24;;;;;;;;;;;9.20;99.90;;;;;;5086945;28;19912;-73
2023/01/12 13:53:00;;;;;;;;;;;9.20;99.90;;;;;;5085186;28;19919;-73
2023/01/12 13:55:27;;;;;;;;;;;9.20;99.90;;;;;;5086928;28;20007;-72
2023/01/12 13:57:56;;;;;;;;;;;9.20;99.90;;;;;;5074602;28;19912;-73
2023/01/12 14:00:22;;;;;;;;;;;9.20;99.90;;;;;;5066708;28;19908;-72
2023/01/12 14:02:48;;;;;;;;;;;9.20;99.90;;;;;;5067083;28;20273;-72
2023/01/12 14:05:14;;;;;;;;;;;9.20;99.90;;;;;;5066899;28;19916;-72
2023/01/12 14:07:58;;;;;;;;;;;9.20;99.90;;;;;;5066551;28;20487;-72
2023/01/12 14:10:23;;;;;;;;;;;9.20;99.90;;;;;;5064113;28;20298;-73
2023/01/12 14:13:09;;;;;;;;;;;9.20;99.90;;;;;;5066475;28;19991;-72
2023/01/12 14:18:43;;;;;;;;;;;9.20;99.90;;;;;;5064010;28;19919;-72
2023/01/12 14:21:26;;;;;;;;;;;9.20;99.90;;;;;;5066242;28;19912;-73
2023/01/12 14:23:51;;;;;;;;;;;9.20;99.90;;;;;;5064225;28;19920;-72
2023/01/12 14:26:21;;;;;;;;;;;9.20;99.90;;;;;;5065296;28;19912;-72
2023/01/12 14:28:49;;;;;;;;;;;9.30;99.90;;;;;;5067237;28;19924;-72
2023/01/12 14:31:21;;;;;;;;;;;9.20;99.90;;;;;;5065451;28;20007;-72
2023/01/12 14:33:49;;;;;;;;;;;9.20;99.90;;;;;;5063756;28;19916;-72
2023/01/12 14:36:16;;;;;;;;;;;9.20;99.90;;;;;;5065987;28;20607;-72
2023/01/12 14:38:42;;;;;;;;;;;9.20;99.90;;;;;;5061440;28;19914;-72
2023/01/12 14:46:23;;;;;;;;;;;9.20;99.90;;;;;;5065152;28;19955;-72
2023/01/12 14:46:50;;;;;;;;;;;9.20;99.90;;;;;;5066594;28;20576;-72
2023/01/12 14:49:27;;;;;;;;;;;9.20;99.90;;;;;;5065424;28;19998;-72
2023/01/12 14:52:16;;;;;;;;;;;9.20;99.90;;;;;;5066440;28;19919;-73
2023/01/12 14:54:42;;;;;;;;;;;9.20;99.90;;;;;;5074210;28;19969;-72
2023/01/12 14:57:19;;;;;;;;;;;9.20;99.90;;;;;;5074934;28;20427;-72
2023/01/12 14:59:48;;;;;;;;;;;9.20;99.90;;;;;;5080596;28;19920;-71
2023/01/12 15:02:14;;;;;;;;;;;9.20;99.90;;;;;;5079842;28;19920;-66
2023/01/12 15:04:50;;;;;;;;;;;9.20;99.90;;;;;;5084359;28;19947;-66
2023/01/12 15:07:33;;;;;;;;;;;9.20;99.90;;;;;;5087955;28;19916;-72
2023/01/12 15:10:20;;;;;;;;;;;9.20;99.90;;;;;;5088339;28;19928;-67
2023/01/12 15:12:46;;;;;;;;;;;9.20;99.90;;;;;;5084658;28;19904;-67
2023/01/12 15:15:23;;;;;;;;;;;9.20;99.90;;;;;;5080480;28;19920;-67
2023/01/12 15:26:14;;;;;;;;;;;9.20;99.90;;;;;;5052721;28;19970;-73
2023/01/12 15:28:40;;;;;;;;;;;9.20;99.90;;;;;;5044599;28;20706;-72
2023/01/12 15:31:26;;;;;;;;;;;9.20;99.90;;;;;;5027785;28;19913;-73
2023/01/12 15:33:52;;;;;;;;;;;9.20;99.90;;;;;;5027346;28;19913;-72
2023/01/12 15:36:17;;;;;;;;;;;9.20;99.90;;;;;;5029147;28;19920;-73
2023/01/12 15:38:43;;;;;;;;;;;9.20;99.90;;;;;;5028831;28;19956;-72
2023/01/12 15:44:20;;;;;;;;;;;9.20;99.90;;;;;;5038604;28;19924;-72
2023/01/12 15:46:45;;;;;;;;;;;9.20;99.90;;;;;;5062944;28;19958;-72